createdAt,value
2022-10-29T00:01:01.745Z,100878.62
2022-10-29T00:03:38.937Z,100875.50
2022-10-29T00:06:10.903Z,100872.70
2022-10-29T00:08:39.985Z,100872.20
2022-10-29T00:11:18.603Z,100869.29
2022-10-29T00:13:48.284Z,100868.13
2022-10-29T00:16:19.616Z,100869.82
2022-10-29T00:18:47.066Z,100873.65
2022-10-29T00:21:19.234Z,100873.04
2022-10-29T00:23:47.974Z,100870.65
2022-10-29T00:26:17.686Z,100873.48
2022-10-29T00:28:45.717Z,100870.54
2022-10-29T00:31:18.376Z,100871.80
2022-10-29T00:33:46.476Z,100873.88
2022-10-29T00:36:18.256Z,100872.84
2022-10-29T00:38:45.618Z,100870.77
2022-10-29T00:41:19.468Z,100869.73
2022-10-29T00:43:50.055Z,100868.19
2022-10-29T00:46:34.733Z,100859.60
2022-10-29T00:49:02.988Z,100862.89
2022-10-29T00:51:31.921Z,100862.00
2022-10-29T00:54:05.988Z,100861.83
2022-10-29T00:56:37.683Z,100861.64
2022-10-29T00:59:08.597Z,100861.33
2022-10-29T01:01:37.773Z,100861.75
2022-10-29T01:04:05.750Z,100863.21
2022-10-29T01:06:33.205Z,100860.21
2022-10-29T01:09:00.529Z,100858.27
2022-10-29T01:11:56.855Z,100852.18
2022-10-29T01:14:56.260Z,100845.88
2022-10-29T01:17:58.170Z,100841.79
2022-10-29T01:21:11.186Z,100840.98
2022-10-29T01:24:01.372Z,100839.34
2022-10-29T01:27:00.312Z,100839.15
2022-10-29T01:30:15.753Z,100841.73
2022-10-29T01:33:42.789Z,100834.77
2022-10-29T01:36:17.824Z,100831.98
2022-10-29T01:38:53.007Z,100830.09
2022-10-29T01:41:41.498Z,100831.20
2022-10-29T01:44:39.443Z,100831.48
2022-10-29T01:47:17.746Z,100832.05
2022-10-29T01:49:58.554Z,100833.23
2022-10-29T01:52:31.759Z,100831.81
2022-10-29T01:54:59.195Z,100828.86
2022-10-29T01:57:36.947Z,100827.38
2022-10-29T02:00:06.937Z,100824.33
2022-10-29T02:02:59.531Z,100819.84
2022-10-29T02:05:54.642Z,100814.65
2022-10-29T02:09:02.184Z,100818.21
2022-10-29T02:11:45.259Z,100816.70
2022-10-29T02:14:29.660Z,100816.63
2022-10-29T02:16:58.653Z,100820.17
2022-10-29T02:19:32.187Z,100825.77
2022-10-29T02:21:59.507Z,100822.69
2022-10-29T02:24:26.956Z,100822.05
2022-10-29T02:26:54.358Z,100822.30
2022-10-29T02:29:21.767Z,100820.83
2022-10-29T02:31:49.275Z,100820.38
2022-10-29T02:34:16.629Z,100819.04
2022-10-29T02:36:44.182Z,100815.05
2022-10-29T02:39:11.564Z,100817.25
2022-10-29T02:41:38.953Z,100810.19
2022-10-29T02:44:06.212Z,100807.38
2022-10-29T02:46:38.877Z,100811.79
2022-10-29T02:49:07.186Z,100809.55
2022-10-29T02:51:34.721Z,100804.21
2022-10-29T02:54:02.271Z,100799.77
2022-10-29T02:56:29.785Z,100795.51
2022-10-29T02:58:57.184Z,100792.67
2022-10-29T03:01:24.600Z,100781.90
2022-10-29T03:03:52.050Z,100779.48
2022-10-29T03:06:20.639Z,100787.30
2022-10-29T03:08:47.965Z,100786.07
2022-10-29T03:11:15.631Z,100780.78
2022-10-29T03:13:43.050Z,100780.59
2022-10-29T03:16:10.558Z,100780.86
2022-10-29T03:18:37.923Z,100780.02
2022-10-29T03:21:05.242Z,100781.52
2022-10-29T03:23:32.617Z,100780.55
2022-10-29T03:26:00.136Z,100769.01
2022-10-29T03:28:27.766Z,100773.75
2022-10-29T03:30:55.149Z,100785.98
2022-10-29T03:33:26.062Z,100795.39
2022-10-29T03:36:03.611Z,100802.85
2022-10-29T03:38:31.235Z,100797.64
2022-10-29T03:40:58.580Z,100800.73
2022-10-29T03:43:25.898Z,100798.40
2022-10-29T03:45:57.324Z,100801.14
2022-10-29T03:48:25.164Z,100798.39
2022-10-29T03:50:57.250Z,100798.98
2022-10-29T03:53:25.522Z,100793.20
2022-10-29T03:55:54.186Z,100795.08
2022-10-29T03:58:22.760Z,100795.94
2022-10-29T04:01:06.034Z,100799.98
2022-10-29T04:03:36.151Z,100799.83
2022-10-29T04:06:14.474Z,100797.55
2022-10-29T04:08:42.362Z,100799.79
2022-10-29T04:11:12.534Z,100809.45
2022-10-29T04:13:39.911Z,100821.52
2022-10-29T04:16:07.516Z,100824.42
2022-10-29T04:18:38.397Z,100818.35
2022-10-29T04:23:01.941Z,100816.23
2022-10-29T04:29:30.401Z,100842.42
2022-10-29T04:31:57.730Z,100836.77
2022-10-29T04:34:25.029Z,100838.70
2022-10-29T04:36:53.154Z,100842.98
2022-10-29T04:39:22.601Z,100844.68
2022-10-29T04:41:50.898Z,100839.37
2022-10-29T04:44:19.468Z,100836.00
2022-10-29T04:46:47.079Z,100829.96
2022-10-29T04:49:14.637Z,100823.36
2022-10-29T04:51:42.144Z,100815.70
2022-10-29T04:54:10.425Z,100817.58
2022-10-29T04:56:37.773Z,100819.08
2022-10-29T04:59:05.079Z,100823.65
2022-10-29T05:01:32.599Z,100829.66
2022-10-29T05:04:00.401Z,100826.61
2022-10-29T05:06:27.828Z,100827.41
2022-10-29T05:08:55.259Z,100827.54
2022-10-29T05:11:22.725Z,100834.12
2022-10-29T05:13:50.084Z,100837.08
2022-10-29T05:16:17.546Z,100839.37
2022-10-29T05:18:44.873Z,100841.28
2022-10-29T05:21:12.206Z,100843.89
2022-10-29T05:23:39.546Z,100848.09
2022-10-29T05:26:07.279Z,100852.68
2022-10-29T05:28:34.749Z,100850.64
2022-10-29T05:31:02.116Z,100853.63
2022-10-29T05:33:29.669Z,100852.89
2022-10-29T05:36:00.509Z,100855.63
2022-10-29T05:38:27.952Z,100856.11
2022-10-29T05:40:58.693Z,100854.52
2022-10-29T05:43:26.379Z,100854.10
2022-10-29T05:45:54.089Z,100850.58
2022-10-29T05:48:21.449Z,100859.08
2022-10-29T05:50:48.892Z,100863.06
2022-10-29T05:53:16.208Z,100863.91
2022-10-29T05:55:43.771Z,100868.26
2022-10-29T05:58:13.539Z,100871.20
2022-10-29T06:00:44.142Z,100870.70
2022-10-29T06:03:20.737Z,100869.62
2022-10-29T06:05:49.969Z,100871.10
2022-10-29T06:37:24.651Z,100896.27
2022-10-29T07:36:08.161Z,100921.23
2022-10-29T07:38:36.537Z,100922.72
2022-10-29T07:41:59.238Z,100921.36
2022-10-29T07:44:13.894Z,100922.11
2022-10-29T07:47:01.725Z,100920.20
2022-10-29T07:57:13.088Z,100920.48
2022-10-29T08:00:25.157Z,100920.34
2022-10-29T08:03:08.636Z,100921.31
2022-10-29T08:05:58.197Z,100920.34
2022-10-29T08:08:41.031Z,100915.17
2022-10-29T08:11:51.733Z,100918.30
2022-10-29T08:14:49.067Z,100916.73
2022-10-29T08:17:34.248Z,100921.88
2022-10-29T08:20:02.123Z,100928.52
2022-10-29T08:22:36.988Z,100932.55
2022-10-29T08:25:05.925Z,100941.52
2022-10-29T08:27:34.011Z,100948.46
2022-10-29T08:30:03.166Z,100949.50
2022-10-29T08:32:33.307Z,100944.95
2022-10-29T08:35:02.928Z,100948.59
2022-10-29T08:37:32.004Z,100955.58
2022-10-29T08:40:07.286Z,100958.88
2022-10-29T08:43:08.845Z,100954.24
2022-10-29T08:46:44.689Z,100958.15
2022-10-29T08:49:23.020Z,100960.89
2022-10-29T08:52:03.128Z,100962.92
2022-10-29T08:54:37.320Z,100960.16
2022-10-29T08:57:21.263Z,100966.36
2022-10-29T09:00:12.623Z,100965.23
2022-10-29T09:07:48.828Z,100951.25
2022-10-29T09:12:49.640Z,100959.66
2022-10-29T09:15:42.617Z,100968.88
2022-10-29T09:18:41.796Z,100966.80
2022-10-29T09:21:29.326Z,100962.19
2022-10-29T09:24:05.601Z,100963.20
2022-10-29T09:26:42.345Z,100968.36
2022-10-29T09:29:45.744Z,100967.77
2022-10-29T09:32:27.981Z,100971.95
2022-10-29T09:35:02.843Z,100973.84
2022-10-29T09:37:56.644Z,100975.06
2022-10-29T09:40:59.077Z,100968.09
2022-10-29T09:43:53.350Z,100960.83
2022-10-29T09:46:46.431Z,100958.39
2022-10-29T09:49:42.111Z,100958.54
2022-10-29T09:52:19.184Z,100954.75
2022-10-29T09:54:52.018Z,100963.90
2022-10-29T09:57:32.228Z,100963.92
2022-10-29T10:00:15.314Z,100963.39
2022-10-29T10:03:19.494Z,100965.33
2022-10-29T10:06:08.584Z,100967.02
2022-10-29T10:09:05.618Z,100965.86
2022-10-29T10:11:41.961Z,100963.84
2022-10-29T10:14:21.273Z,100961.04
2022-10-29T10:17:13.920Z,100957.00
2022-10-29T10:19:49.295Z,100950.56
2022-10-29T10:22:21.721Z,100943.16
2022-10-29T10:25:57.640Z,100950.03
2022-10-29T10:28:37.018Z,100945.16
2022-10-29T10:31:21.724Z,100945.01
2022-10-29T10:34:15.477Z,100952.38
2022-10-29T10:36:49.689Z,100959.30
2022-10-29T10:39:36.170Z,100960.01
2022-10-29T10:42:16.794Z,100955.63
2022-10-29T10:45:00.820Z,100951.73
2022-10-29T10:47:36.326Z,100954.91
2022-10-29T10:50:24.513Z,100956.89
2022-10-29T10:53:01.659Z,100950.84
2022-10-29T10:55:45.809Z,100948.82
2022-10-29T10:58:38.057Z,100946.29
2022-10-29T11:01:20.333Z,100952.02
2022-10-29T11:04:09.840Z,100948.27
2022-10-29T11:06:42.925Z,100943.20
2022-10-29T11:09:35.682Z,100947.64
2022-10-29T11:12:26.081Z,100947.33
2022-10-29T11:15:15.121Z,100939.73
2022-10-29T11:18:01.364Z,100938.61
2022-10-29T11:20:36.458Z,100937.20
2022-10-29T11:23:54.444Z,100936.58
2022-10-29T11:26:37.006Z,100939.36
2022-10-29T11:29:25.871Z,100939.45
2022-10-29T11:32:18.668Z,100941.31
2022-10-29T11:35:36.136Z,100935.61
2022-10-29T11:42:47.560Z,100925.96
2022-10-29T11:46:34.307Z,100926.48
2022-10-29T11:54:18.858Z,100919.23
2022-10-29T12:10:54.244Z,100926.33
2022-10-29T12:14:27.797Z,100931.68
2022-10-29T12:18:56.603Z,100925.12
2022-10-29T12:22:32.143Z,100918.66
2022-10-29T12:25:40.405Z,100912.26
2022-10-29T12:28:34.852Z,100913.63
2022-10-29T12:31:48.485Z,100916.22
2022-10-29T12:35:16.363Z,100913.60
2022-10-29T12:38:56.918Z,100914.73
2022-10-29T12:41:51.176Z,100917.30
2022-10-29T12:49:23.838Z,100911.50
2022-10-29T13:00:02.965Z,100916.41
2022-10-29T13:02:42.476Z,100916.72
2022-10-29T13:05:33.480Z,100923.80
2022-10-29T13:08:19.456Z,100922.05
2022-10-29T13:14:00.246Z,100915.80
2022-10-29T13:16:52.587Z,100917.69
2022-10-29T13:19:58.731Z,100917.78
2022-10-29T13:23:04.017Z,100910.04
2022-10-29T13:26:22.018Z,100910.27
2022-10-29T13:30:15.298Z,100909.42
2022-10-29T13:32:51.169Z,100904.48
2022-10-29T13:35:38.118Z,100901.91
2022-10-29T13:38:20.579Z,100901.90
2022-10-29T13:41:24.487Z,100902.73
2022-10-29T13:44:31.937Z,100907.51
2022-10-29T13:47:25.738Z,100906.34
2022-10-29T13:50:21.202Z,100907.40
2022-10-29T13:56:59.075Z,100910.02
2022-10-29T13:59:48.959Z,100908.57
2022-10-29T14:02:45.788Z,100907.33
2022-10-29T14:09:43.251Z,100897.42
2022-10-29T14:12:41.265Z,100883.84
2022-10-29T14:15:14.563Z,100880.90
2022-10-29T14:17:46.008Z,100879.41
2022-10-29T14:20:41.750Z,100879.42
2022-10-29T14:23:37.600Z,100884.62
2022-10-29T14:26:28.708Z,100881.13
2022-10-29T14:29:32.020Z,100882.09
2022-10-29T14:36:05.589Z,100880.86
2022-10-29T14:39:32.451Z,100880.44
2022-10-29T14:42:56.565Z,100884.69
2022-10-29T14:45:54.405Z,100884.52
2022-10-29T14:48:34.598Z,100894.80
2022-10-29T14:51:18.483Z,100892.30
2022-10-29T14:54:12.211Z,100891.11
2022-10-29T14:56:43.410Z,100895.95
2022-10-29T15:03:36.258Z,100892.49
2022-10-29T15:07:23.773Z,100886.26
2022-10-29T15:09:40.783Z,100882.83
2022-10-29T15:12:46.577Z,100878.54
2022-10-29T15:15:24.132Z,100882.29
2022-10-29T15:18:34.390Z,100884.80
2022-10-29T15:21:34.614Z,100887.98
2022-10-29T15:24:35.238Z,100885.94
2022-10-29T15:27:19.332Z,100882.20
2022-10-29T15:29:48.798Z,100879.77
2022-10-29T15:32:17.871Z,100878.87
2022-10-29T15:34:53.278Z,100879.42
2022-10-29T15:37:32.125Z,100876.17
2022-10-29T15:40:26.513Z,100873.72
2022-10-29T15:43:32.299Z,100872.71
2022-10-29T15:47:24.128Z,100879.65
2022-10-29T15:49:54.871Z,100887.73
2022-10-29T16:17:24.476Z,100905.61
2022-10-29T16:21:38.627Z,100902.93
2022-10-29T16:24:21.265Z,100903.86
2022-10-29T16:27:15.184Z,100904.50
2022-10-29T17:00:35.167Z,100897.12
2022-10-29T17:03:35.432Z,100888.34
2022-10-29T17:10:38.656Z,100888.20
2022-10-29T17:26:05.307Z,100903.16
2022-10-29T17:59:15.062Z,100903.33
2022-10-29T18:02:19.843Z,100904.88
2022-10-29T18:05:18.818Z,100904.28
2022-10-29T18:08:05.914Z,100898.07
2022-10-29T18:10:37.281Z,100909.20
2022-10-29T18:13:33.369Z,100912.64
2022-10-29T18:16:02.165Z,100912.60
2022-10-29T18:18:54.371Z,100913.10
2022-10-29T18:21:37.225Z,100911.54
2022-10-29T18:24:07.265Z,100902.81
2022-10-29T18:26:54.625Z,100902.31
2022-10-29T18:29:53.547Z,100902.51
2022-10-29T18:32:39.746Z,100901.11
2022-10-29T18:35:55.338Z,100902.75
2022-10-29T18:38:56.293Z,100901.12
2022-10-29T18:41:52.048Z,100900.65
2022-10-29T18:44:47.764Z,100896.72
2022-10-29T18:47:59.838Z,100898.50
2022-10-29T18:50:43.977Z,100898.43
2022-10-29T18:54:38.318Z,100901.02
2022-10-29T19:09:19.964Z,100911.73
2022-10-29T20:32:54.312Z,100894.68
2022-10-29T20:36:12.169Z,100895.86
2022-10-29T20:39:36.661Z,100906.81
2022-10-29T20:42:55.542Z,100916.13
2022-10-29T20:45:32.684Z,100920.52
2022-10-29T20:48:59.614Z,100919.09
2022-10-29T20:52:51.851Z,100915.13
2022-10-29T20:56:44.171Z,100906.07
2022-10-29T20:59:58.925Z,100910.02
2022-10-29T21:03:38.490Z,100909.73
2022-10-29T21:27:21.744Z,100877.52
2022-10-29T21:32:00.900Z,100871.03
2022-10-29T21:37:04.305Z,100878.80
2022-10-29T21:55:00.980Z,100876.25
2022-10-29T22:02:45.355Z,100866.75
2022-10-29T22:05:42.778Z,100866.28
2022-10-29T22:08:14.223Z,100857.00
2022-10-29T22:10:50.761Z,100854.33
2022-10-29T22:13:47.454Z,100852.94
2022-10-29T22:16:28.117Z,100856.05
2022-10-29T22:19:11.187Z,100856.23
2022-10-29T22:21:53.985Z,100854.55
2022-10-29T22:24:41.184Z,100854.28
2022-10-29T22:27:17.929Z,100854.76
2022-10-29T22:29:57.356Z,100856.40
2022-10-29T22:32:36.916Z,100855.04
2022-10-29T22:35:18.489Z,100853.50
2022-10-29T22:38:00.209Z,100854.84
2022-10-29T22:40:46.417Z,100852.30
2022-10-29T22:43:15.389Z,100851.02
2022-10-29T22:45:55.980Z,100847.24
2022-10-29T22:48:38.723Z,100841.39
2022-10-29T22:51:18.793Z,100842.02
2022-10-29T22:53:56.136Z,100846.19
2022-10-29T22:56:41.382Z,100850.71
2022-10-29T22:59:17.007Z,100854.53
2022-10-29T23:01:48.653Z,100843.64
2022-10-29T23:04:18.333Z,100841.45
2022-10-29T23:07:02.077Z,100840.45
2022-10-29T23:09:31.333Z,100833.52
2022-10-29T23:11:59.620Z,100838.02
2022-10-29T23:14:30.650Z,100844.23
2022-10-29T23:17:22.082Z,100847.93
2022-10-29T23:20:00.825Z,100853.80
2022-10-29T23:22:38.592Z,100858.73
2022-10-29T23:25:16.296Z,100861.14
2022-10-29T23:28:12.648Z,100861.01
2022-10-29T23:30:51.747Z,100860.30
2022-10-29T23:33:36.190Z,100861.05
2022-10-29T23:36:20.389Z,100861.79
2022-10-29T23:38:58.331Z,100860.55
2022-10-29T23:41:35.244Z,100861.06
2022-10-29T23:44:20.307Z,100857.24
2022-10-29T23:46:55.377Z,100849.49
2022-10-29T23:49:34.391Z,100846.99
2022-10-29T23:52:08.372Z,100847.85
2022-10-29T23:54:48.828Z,100839.62
2022-10-29T23:57:20.514Z,100840.12
